Time;durP1;ratioP1;P1;durP2;ratioP2;P2;SDS_P1;SDS_P2;PMS_P1;PMS_P2;Temp;Humidity;BMP_temperature;BMP_pressure;BME280_temperature;BME280_humidity;BME280_pressure;Samples;Min_cycle;Max_cycle;Signal;HPM_P1;HPM_P2
2021/09/06 00:00:29;;;;;;;4.00;2.50;;;;;;;;;;5016679;28;20128;-64
2021/09/06 00:02:55;;;;;;;4.15;2.63;;;;;;;;;;5020454;28;20593;-64
2021/09/06 00:05:22;;;;;;;4.25;2.78;;;;;;;;;;5020954;28;20552;-64
2021/09/06 00:07:49;;;;;;;7.63;3.03;;;;;;;;;;5023902;28;20488;-64
2021/09/06 00:10:18;;;;;;;6.13;2.80;;;;;;;;;;5022377;28;20120;-64
2021/09/06 00:12:44;;;;;;;5.35;2.65;;;;;;;;;;5019531;28;20472;-64
2021/09/06 00:15:11;;;;;;;5.95;3.10;;;;;;;;;;5025855;28;20081;-64
2021/09/06 00:17:38;;;;;;;5.00;2.78;;;;;;;;;;5023562;28;20823;-64
2021/09/06 00:20:05;;;;;;;5.88;3.03;;;;;;;;;;5025029;28;20129;-64
2021/09/06 00:22:32;;;;;;;5.75;2.58;;;;;;;;;;5023448;28;20037;-64
2021/09/06 00:24:59;;;;;;;5.20;2.70;;;;;;;;;;5019834;28;20133;-64
2021/09/06 00:27:26;;;;;;;4.70;2.60;;;;;;;;;;5023325;28;20046;-64
2021/09/06 00:29:52;;;;;;;3.55;2.53;;;;;;;;;;5024908;28;20137;-64
2021/09/06 00:32:19;;;;;;;7.32;2.80;;;;;;;;;;5023346;28;20049;-64
2021/09/06 00:34:46;;;;;;;8.47;2.90;;;;;;;;;;5026786;28;20104;-64
2021/09/06 00:37:12;;;;;;;4.72;2.95;;;;;;;;;;5029890;28;20763;-64
2021/09/06 00:39:39;;;;;;;4.63;2.80;;;;;;;;;;5017403;28;20074;-64
2021/09/06 00:42:05;;;;;;;6.15;3.10;;;;;;;;;;5023922;28;20054;-64
2021/09/06 00:44:32;;;;;;;5.45;3.17;;;;;;;;;;5027048;28;20084;-64
2021/09/06 00:47:00;;;;;;;6.70;2.63;;;;;;;;;;5027736;28;20055;-64
2021/09/06 00:49:27;;;;;;;5.75;2.70;;;;;;;;;;5031479;28;20049;-64
2021/09/06 00:51:54;;;;;;;7.57;2.63;;;;;;;;;;5028182;28;20089;-64
2021/09/06 00:54:21;;;;;;;6.93;3.13;;;;;;;;;;5021301;28;20141;-64
2021/09/06 00:56:47;;;;;;;6.70;2.58;;;;;;;;;;5024797;28;20107;-64
2021/09/06 00:59:14;;;;;;;7.20;3.65;;;;;;;;;;5029846;28;20184;-64
2021/09/06 01:01:41;;;;;;;4.13;2.67;;;;;;;;;;5032427;28;20119;-64
2021/09/06 01:04:08;;;;;;;4.15;2.72;;;;;;;;;;5031295;28;20136;-64
2021/09/06 01:06:35;;;;;;;4.82;2.38;;;;;;;;;;5023232;28;20089;-64
2021/09/06 01:09:01;;;;;;;4.20;2.43;;;;;;;;;;5023720;28;20498;-64
2021/09/06 01:11:29;;;;;;;5.15;2.60;;;;;;;;;;5022304;28;20100;-64
2021/09/06 01:13:55;;;;;;;6.05;2.67;;;;;;;;;;5021731;28;20129;-64
2021/09/06 01:16:22;;;;;;;3.88;2.75;;;;;;;;;;5028016;28;20525;-64
2021/09/06 01:18:50;;;;;;;3.85;2.38;;;;;;;;;;5022315;28;20084;-64
2021/09/06 01:21:17;;;;;;;3.80;2.47;;;;;;;;;;5027556;28;20596;-64
2021/09/06 01:23:43;;;;;;;5.35;2.47;;;;;;;;;;5029459;28;20157;-64
2021/09/06 01:26:09;;;;;;;4.03;2.58;;;;;;;;;;5025552;28;20144;-64
2021/09/06 01:28:37;;;;;;;;;;;;;;;;;;5026342;28;20060;-64
2021/09/06 01:31:03;;;;;;;4.03;2.70;;;;;;;;;;5031519;28;20012;-64
2021/09/06 01:33:30;;;;;;;5.03;2.38;;;;;;;;;;5030756;28;20136;-64
2021/09/06 01:35:57;;;;;;;4.80;2.70;;;;;;;;;;5022955;28;20145;-63
2021/09/06 01:38:23;;;;;;;9.43;3.40;;;;;;;;;;5023813;28;20307;-64
2021/09/06 01:40:50;;;;;;;7.03;3.03;;;;;;;;;;5027384;28;20073;-64
2021/09/06 01:43:17;;;;;;;5.10;2.70;;;;;;;;;;5025032;28;20136;-64
2021/09/06 01:45:43;;;;;;;8.13;2.60;;;;;;;;;;5025077;28;20089;-64
2021/09/06 01:48:10;;;;;;;4.45;2.65;;;;;;;;;;5026400;28;20046;-64
2021/09/06 01:50:37;;;;;;;6.10;2.80;;;;;;;;;;5025343;28;20129;-64
2021/09/06 01:53:03;;;;;;;5.05;2.90;;;;;;;;;;5023277;28;20882;-64
2021/09/06 01:55:30;;;;;;;3.63;2.72;;;;;;;;;;5022105;28;20136;-64
2021/09/06 01:57:57;;;;;;;7.32;3.03;;;;;;;;;;5018311;28;20054;-64
2021/09/06 02:00:23;;;;;;;7.50;2.97;;;;;;;;;;5031365;28;20049;-64
2021/09/06 02:02:50;;;;;;;4.47;2.78;;;;;;;;;;5023132;28;20079;-64
2021/09/06 02:05:17;;;;;;;5.28;3.08;;;;;;;;;;5025817;28;20064;-64
2021/09/06 02:07:44;;;;;;;4.97;3.20;;;;;;;;;;5030193;28;20120;-64
2021/09/06 02:10:10;;;;;;;4.97;3.00;;;;;;;;;;5023483;28;20100;-64
2021/09/06 02:12:37;;;;;;;5.65;3.28;;;;;;;;;;5025929;28;20551;-64
2021/09/06 02:15:03;;;;;;;6.20;3.08;;;;;;;;;;5021671;28;20137;-64
2021/09/06 02:17:30;;;;;;;4.82;2.85;;;;;;;;;;5021933;28;20076;-64
2021/09/06 02:19:57;;;;;;;5.97;2.95;;;;;;;;;;5028545;28;20046;-64
2021/09/06 02:22:23;;;;;;;5.18;3.15;;;;;;;;;;5025403;28;20088;-64
2021/09/06 02:24:50;;;;;;;5.40;2.67;;;;;;;;;;5028470;28;20108;-64
2021/09/06 02:27:17;;;;;;;4.85;2.90;;;;;;;;;;5019535;28;20073;-64
2021/09/06 02:29:43;;;;;;;5.18;3.30;;;;;;;;;;5021164;28;20045;-64
2021/09/06 02:32:10;;;;;;;8.02;2.85;;;;;;;;;;5019865;28;20144;-64
2021/09/06 02:34:37;;;;;;;6.35;3.00;;;;;;;;;;5024462;28;20132;-64
2021/09/06 02:37:03;;;;;;;4.53;3.00;;;;;;;;;;5021320;28;20161;-64
2021/09/06 02:39:29;;;;;;;7.40;3.03;;;;;;;;;;5026895;28;20504;-64
2021/09/06 02:41:58;;;;;;;6.90;3.03;;;;;;;;;;5025752;28;20272;-64
2021/09/06 02:44:28;;;;;;;5.72;2.72;;;;;;;;;;5017275;28;20481;-64
2021/09/06 02:46:55;;;;;;;5.32;2.90;;;;;;;;;;5023169;28;20104;-64
2021/09/06 02:49:22;;;;;;;4.53;2.92;;;;;;;;;;5023741;28;20862;-64
2021/09/06 02:51:49;;;;;;;4.20;2.85;;;;;;;;;;5025488;28;20132;-64
2021/09/06 02:54:16;;;;;;;5.10;3.28;;;;;;;;;;5021398;28;20544;-64
2021/09/06 02:56:43;;;;;;;4.55;2.92;;;;;;;;;;5024885;28;20137;-64
2021/09/06 02:59:09;;;;;;;5.03;2.97;;;;;;;;;;5023925;28;20144;-64
2021/09/06 03:01:36;;;;;;;7.00;2.95;;;;;;;;;;5028224;28;20073;-64
2021/09/06 03:04:03;;;;;;;6.25;3.00;;;;;;;;;;5023980;28;20050;-64
2021/09/06 03:06:30;;;;;;;4.32;2.85;;;;;;;;;;5024395;28;20099;-64
2021/09/06 03:08:56;;;;;;;5.55;2.90;;;;;;;;;;5024795;28;20073;-64
2021/09/06 03:11:24;;;;;;;7.90;3.15;;;;;;;;;;5033279;28;20085;-64
2021/09/06 03:13:51;;;;;;;5.07;3.22;;;;;;;;;;5022212;28;20216;-64
2021/09/06 03:16:17;;;;;;;6.32;3.13;;;;;;;;;;5026189;28;20133;-64
2021/09/06 03:18:44;;;;;;;5.88;3.38;;;;;;;;;;5021609;28;20112;-64
2021/09/06 03:21:10;;;;;;;5.97;3.20;;;;;;;;;;5023691;28;20045;-64
2021/09/06 03:23:37;;;;;;;4.80;3.20;;;;;;;;;;5020952;28;20132;-64
2021/09/06 03:26:03;;;;;;;6.75;3.13;;;;;;;;;;5022370;28;20049;-64
2021/09/06 03:28:30;;;;;;;4.65;3.08;;;;;;;;;;5027751;28;20132;-64
2021/09/06 03:30:56;;;;;;;5.82;3.08;;;;;;;;;;5026437;28;20169;-64
2021/09/06 03:33:23;;;;;;;5.20;2.88;;;;;;;;;;5022311;28;20517;-63
2021/09/06 03:35:50;;;;;;;5.55;3.28;;;;;;;;;;5027520;28;20555;-64
2021/09/06 03:38:16;;;;;;;5.20;3.15;;;;;;;;;;5027089;28;20112;-64
2021/09/06 03:40:42;;;;;;;5.90;3.17;;;;;;;;;;5024634;28;20130;-64
2021/09/06 03:43:10;;;;;;;6.38;3.45;;;;;;;;;;5025025;28;20140;-64
2021/09/06 03:45:36;;;;;;;4.55;2.78;;;;;;;;;;5025157;28;20140;-64
2021/09/06 03:48:03;;;;;;;4.63;3.28;;;;;;;;;;5021413;28;20465;-64
2021/09/06 03:50:30;;;;;;;8.70;3.65;;;;;;;;;;5020876;28;20069;-64
2021/09/06 03:52:56;;;;;;;5.32;3.42;;;;;;;;;;5026876;28;20158;-64
2021/09/06 03:55:23;;;;;;;5.82;3.35;;;;;;;;;;5024843;28;20132;-64
2021/09/06 03:57:49;;;;;;;5.32;3.17;;;;;;;;;;5022162;28;20077;-64
2021/09/06 04:00:16;;;;;;;5.88;3.13;;;;;;;;;;5022895;28;20469;-63
2021/09/06 04:02:43;;;;;;;6.80;3.50;;;;;;;;;;5019157;28;20132;-64
2021/09/06 04:05:10;;;;;;;7.88;3.28;;;;;;;;;;5026817;28;20516;-64
2021/09/06 04:07:37;;;;;;;5.13;2.80;;;;;;;;;;5019505;28;20129;-64
2021/09/06 04:10:03;;;;;;;9.83;3.77;;;;;;;;;;5023395;28;20192;-63
2021/09/06 04:12:31;;;;;;;5.43;2.95;;;;;;;;;;5024721;28;20091;-64
2021/09/06 04:14:57;;;;;;;5.72;3.05;;;;;;;;;;5026942;28;20132;-64
2021/09/06 04:17:24;;;;;;;8.32;3.70;;;;;;;;;;5022314;28;20073;-64
2021/09/06 04:19:50;;;;;;;4.75;3.30;;;;;;;;;;5022822;28;20137;-64
2021/09/06 04:22:17;;;;;;;5.10;3.03;;;;;;;;;;5020449;28;20140;-64
2021/09/06 04:24:45;;;;;;;5.88;3.28;;;;;;;;;;5019888;28;20056;-64
2021/09/06 04:27:12;;;;;;;4.22;3.33;;;;;;;;;;5025010;28;20132;-64
2021/09/06 04:29:38;;;;;;;7.20;3.60;;;;;;;;;;5020126;28;20134;-64
2021/09/06 04:32:06;;;;;;;6.18;3.63;;;;;;;;;;5021453;28;20148;-63
2021/09/06 04:34:33;;;;;;;4.90;3.20;;;;;;;;;;5020298;28;20049;-64
2021/09/06 04:37:01;;;;;;;6.50;3.42;;;;;;;;;;5023827;28;20149;-64
2021/09/06 04:39:28;;;;;;;6.07;3.55;;;;;;;;;;5023759;28;20133;-64
2021/09/06 04:41:54;;;;;;;7.10;3.78;;;;;;;;;;5022510;28;20156;-63
2021/09/06 04:44:22;;;;;;;5.68;3.90;;;;;;;;;;5023209;28;20092;-64
2021/09/06 04:46:48;;;;;;;7.20;3.65;;;;;;;;;;5024334;28;20084;-63
2021/09/06 04:49:15;;;;;;;5.63;3.78;;;;;;;;;;5023577;28;20046;-63
2021/09/06 04:51:41;;;;;;;8.48;3.67;;;;;;;;;;5022719;28;20469;-63
2021/09/06 04:54:08;;;;;;;7.22;3.97;;;;;;;;;;5023082;28;20156;-64
2021/09/06 04:56:35;;;;;;;9.07;3.72;;;;;;;;;;5020757;28;20534;-64
2021/09/06 04:59:01;;;;;;;7.60;3.78;;;;;;;;;;5023088;28;20563;-64
2021/09/06 05:01:27;;;;;;;6.35;3.78;;;;;;;;;;5025661;28;20133;-64
2021/09/06 05:03:54;;;;;;;6.88;3.58;;;;;;;;;;5020239;28;20493;-64
2021/09/06 05:06:21;;;;;;;12.20;3.97;;;;;;;;;;5025479;28;20153;-64
2021/09/06 05:08:48;;;;;;;7.00;3.92;;;;;;;;;;5020834;28;20137;-63
2021/09/06 05:11:14;;;;;;;5.05;3.28;;;;;;;;;;5025643;28;20072;-64
2021/09/06 05:13:40;;;;;;;4.55;3.38;;;;;;;;;;5017498;28;20144;-64
2021/09/06 05:16:07;;;;;;;5.78;3.50;;;;;;;;;;5021657;28;20054;-63
2021/09/06 05:18:34;;;;;;;7.10;4.33;;;;;;;;;;5017547;28;20497;-64
2021/09/06 05:21:00;;;;;;;6.60;3.63;;;;;;;;;;5023196;28;20136;-64
2021/09/06 05:23:27;;;;;;;6.95;3.15;;;;;;;;;;5025971;28;20042;-64
2021/09/06 05:25:54;;;;;;;6.82;3.25;;;;;;;;;;5026232;28;20144;-64
2021/09/06 05:28:22;;;;;;;6.20;3.58;;;;;;;;;;5023581;28;20054;-64
2021/09/06 05:30:49;;;;;;;7.30;3.43;;;;;;;;;;5022648;28;20568;-64
2021/09/06 05:33:15;;;;;;;5.13;3.60;;;;;;;;;;5028500;28;20084;-64
2021/09/06 05:35:42;;;;;;;6.70;3.50;;;;;;;;;;5027047;28;20041;-63
2021/09/06 05:38:09;;;;;;;5.25;3.22;;;;;;;;;;5027800;28;20077;-64
2021/09/06 05:40:35;;;;;;;5.85;3.45;;;;;;;;;;5026897;28;20145;-64
2021/09/06 05:43:03;;;;;;;6.15;3.47;;;;;;;;;;5024300;28;20137;-63
2021/09/06 05:45:30;;;;;;;5.07;3.50;;;;;;;;;;5023430;28;20159;-63
2021/09/06 05:47:56;;;;;;;6.17;3.03;;;;;;;;;;5020936;28;20042;-64
2021/09/06 05:50:25;;;;;;;6.18;3.35;;;;;;;;;;5024556;28;20395;-63
2021/09/06 05:52:52;;;;;;;7.25;3.50;;;;;;;;;;5022619;28;20084;-64
2021/09/06 05:55:19;;;;;;;5.88;3.47;;;;;;;;;;5026626;28;20512;-64
2021/09/06 05:57:45;;;;;;;6.18;3.88;;;;;;;;;;5022283;28;20088;-64
2021/09/06 06:00:12;;;;;;;5.35;2.75;;;;;;;;;;5035076;28;20083;-63
2021/09/06 06:02:38;;;;;;;7.68;3.25;;;;;;;;;;5024589;28;20053;-64
2021/09/06 06:05:06;;;;;;;5.50;2.72;;;;;;;;;;5020646;28;20061;-64
2021/09/06 06:07:33;;;;;;;;;;;;;;;;;;5028593;28;20053;-64
2021/09/06 06:10:00;;;;;;;6.05;3.10;;;;;;;;;;5028210;28;20012;-63
2021/09/06 06:12:28;;;;;;;4.87;3.07;;;;;;;;;;5024791;28;20054;-64
2021/09/06 06:14:55;;;;;;;6.07;3.13;;;;;;;;;;5023044;28;20053;-64
2021/09/06 06:17:22;;;;;;;7.28;3.03;;;;;;;;;;5017924;28;20349;-64
2021/09/06 06:19:49;;;;;;;5.20;2.90;;;;;;;;;;5024812;28;20132;-64
2021/09/06 06:22:16;;;;;;;6.70;3.35;;;;;;;;;;5026419;28;20133;-64
2021/09/06 06:24:42;;;;;;;5.30;2.90;;;;;;;;;;5021861;28;20620;-63
2021/09/06 06:27:09;;;;;;;8.05;2.83;;;;;;;;;;5021377;28;20141;-63
2021/09/06 06:29:35;;;;;;;6.07;3.10;;;;;;;;;;5026434;28;20081;-64
2021/09/06 06:32:02;;;;;;;4.40;2.90;;;;;;;;;;5021800;28;20464;-64
2021/09/06 06:34:28;;;;;;;5.18;2.92;;;;;;;;;;5028854;28;20047;-64
2021/09/06 06:36:55;;;;;;;7.18;2.65;;;;;;;;;;5019500;28;20141;-64
2021/09/06 06:39:22;;;;;;;4.63;3.10;;;;;;;;;;5021539;28;20132;-64
2021/09/06 06:41:49;;;;;;;5.28;2.70;;;;;;;;;;5021066;28;20080;-64
2021/09/06 06:44:15;;;;;;;5.47;2.85;;;;;;;;;;5027495;28;20129;-63
2021/09/06 06:46:42;;;;;;;6.20;3.17;;;;;;;;;;5026981;28;20136;-63
2021/09/06 06:49:08;;;;;;;6.70;2.90;;;;;;;;;;5029264;28;20140;-64
2021/09/06 06:51:35;;;;;;;4.75;2.75;;;;;;;;;;5026941;28;20120;-63
2021/09/06 06:54:02;;;;;;;5.20;2.53;;;;;;;;;;5022673;28;20132;-64
2021/09/06 06:56:30;;;;;;;4.03;2.50;;;;;;;;;;5020108;28;20061;-64
2021/09/06 06:58:57;;;;;;;5.72;2.65;;;;;;;;;;5026953;28;20045;-62
2021/09/06 07:01:24;;;;;;;;;;;;;;;;;;5024853;28;20129;-62
2021/09/06 07:03:50;;;;;;;4.97;2.65;;;;;;;;;;5017942;28;19929;-62
2021/09/06 07:06:17;;;;;;;4.28;2.90;;;;;;;;;;5026450;28;20528;-62
2021/09/06 07:08:44;;;;;;;6.40;2.92;;;;;;;;;;5019880;28;20115;-62
2021/09/06 07:11:10;;;;;;;5.18;2.72;;;;;;;;;;5024450;28;20128;-62
2021/09/06 07:13:37;;;;;;;4.60;2.63;;;;;;;;;;5023511;28;20082;-62
2021/09/06 07:16:03;;;;;;;4.85;2.70;;;;;;;;;;5028576;28;20125;-62
2021/09/06 07:18:30;;;;;;;3.70;2.42;;;;;;;;;;5023562;28;20444;-62
2021/09/06 07:20:57;;;;;;;6.57;2.93;;;;;;;;;;5021102;28;20576;-62
2021/09/06 07:23:23;;;;;;;3.90;2.53;;;;;;;;;;5022822;28;20338;-62
2021/09/06 07:25:50;;;;;;;8.55;2.60;;;;;;;;;;5022171;28;20084;-62
2021/09/06 07:28:17;;;;;;;5.15;2.58;;;;;;;;;;5026311;28;20082;-62
2021/09/06 07:30:43;;;;;;;5.57;2.58;;;;;;;;;;5017254;28;20121;-62
2021/09/06 07:33:10;;;;;;;4.57;2.50;;;;;;;;;;5023804;28;20140;-63
2021/09/06 07:35:37;;;;;;;3.50;2.22;;;;;;;;;;5021411;28;20157;-62
2021/09/06 07:38:03;;;;;;;5.80;2.50;;;;;;;;;;5019891;28;20057;-62
2021/09/06 07:40:30;;;;;;;5.25;2.50;;;;;;;;;;5024441;28;20117;-62
2021/09/06 07:42:57;;;;;;;5.45;2.42;;;;;;;;;;5023770;28;20088;-62
2021/09/06 07:45:23;;;;;;;4.75;2.78;;;;;;;;;;5022335;28;20137;-62
2021/09/06 07:47:50;;;;;;;3.97;2.35;;;;;;;;;;5021694;28;20142;-62
2021/09/06 07:50:19;;;;;;;6.35;2.58;;;;;;;;;;5024899;28;20523;-62
2021/09/06 07:52:46;;;;;;;6.25;2.50;;;;;;;;;;5025953;28;20087;-62
2021/09/06 07:55:13;;;;;;;3.55;2.10;;;;;;;;;;5025026;28;20087;-62
2021/09/06 07:57:43;;;;;;;4.90;2.42;;;;;;;;;;5023662;28;20133;-62
2021/09/06 08:00:10;;;;;;;6.57;2.58;;;;;;;;;;5015429;28;20081;-62
2021/09/06 08:02:49;;;;;;;5.75;2.42;;;;;;;;;;5018775;28;20128;-62
2021/09/06 08:05:18;;;;;;;4.47;2.15;;;;;;;;;;5020344;28;20108;-62
2021/09/06 08:07:45;;;;;;;5.85;2.15;;;;;;;;;;5025207;28;20450;-62
2021/09/06 08:10:11;;;;;;;4.13;2.03;;;;;;;;;;5023013;28;20095;-62
2021/09/06 08:12:38;;;;;;;3.20;1.92;;;;;;;;;;5020365;28;20347;-62
2021/09/06 08:15:05;;;;;;;4.40;2.10;;;;;;;;;;5026291;28;20140;-62
2021/09/06 08:17:34;;;;;;;4.03;2.30;;;;;;;;;;5017941;28;20135;-62
2021/09/06 08:20:02;;;;;;;3.35;2.30;;;;;;;;;;5018852;28;20137;-62
2021/09/06 08:22:29;;;;;;;3.97;1.85;;;;;;;;;;5024391;28;20056;-62
2021/09/06 08:24:56;;;;;;;3.95;2.00;;;;;;;;;;5023184;28;20129;-62
2021/09/06 08:27:22;;;;;;;5.70;1.70;;;;;;;;;;5019360;28;20048;-62
2021/09/06 08:29:49;;;;;;;3.40;2.15;;;;;;;;;;5029473;28;20120;-62
2021/09/06 08:32:15;;;;;;;3.03;1.75;;;;;;;;;;5022694;28;20132;-64
2021/09/06 08:34:42;;;;;;;4.65;2.25;;;;;;;;;;5026967;28;20144;-64
2021/09/06 08:37:09;;;;;;;3.80;1.98;;;;;;;;;;5026163;28;20077;-64
2021/09/06 08:39:37;;;;;;;3.70;2.10;;;;;;;;;;5019814;28;20088;-64
2021/09/06 08:42:04;;;;;;;3.17;2.08;;;;;;;;;;5020777;28;20138;-64
2021/09/06 08:44:31;;;;;;;3.38;2.15;;;;;;;;;;5017998;28;20138;-64
2021/09/06 08:46:59;;;;;;;5.50;2.40;;;;;;;;;;5023553;28;20140;-64
2021/09/06 08:49:25;;;;;;;4.80;2.03;;;;;;;;;;5020486;28;20136;-64
2021/09/06 08:51:52;;;;;;;6.82;2.20;;;;;;;;;;5021545;28;20088;-64
2021/09/06 08:54:18;;;;;;;3.55;2.00;;;;;;;;;;5021015;28;20058;-64
2021/09/06 08:56:46;;;;;;;3.30;2.03;;;;;;;;;;5029422;28;20540;-64
2021/09/06 08:59:13;;;;;;;3.83;1.83;;;;;;;;;;5027476;28;20136;-64
2021/09/06 09:01:44;;;;;;;3.35;1.92;;;;;;;;;;5027702;28;20263;-64
2021/09/06 09:04:15;;;;;;;3.78;2.08;;;;;;;;;;5023902;28;20465;-65
2021/09/06 09:06:43;;;;;;;5.65;2.15;;;;;;;;;;4990009;28;20092;-64
2021/09/06 09:09:09;;;;;;;4.28;2.20;;;;;;;;;;4990475;28;20082;-64
2021/09/06 09:11:39;;;;;;;2.53;1.92;;;;;;;;;;4991039;28;20050;-64
2021/09/06 09:14:12;;;;;;;3.47;2.10;;;;;;;;;;4995067;28;20082;-64
2021/09/06 09:16:38;;;;;;;4.25;2.10;;;;;;;;;;4992233;28;20136;-64
2021/09/06 09:19:06;;;;;;;6.43;2.57;;;;;;;;;;4993188;28;20081;-64
2021/09/06 09:21:34;;;;;;;4.82;2.30;;;;;;;;;;4993613;28;20074;-65
2021/09/06 09:24:01;;;;;;;5.35;2.03;;;;;;;;;;4992642;28;20050;-64
2021/09/06 09:26:28;;;;;;;7.32;1.75;;;;;;;;;;4991503;28;20057;-64
2021/09/06 09:28:55;;;;;;;3.58;2.00;;;;;;;;;;4995973;28;20082;-64
2021/09/06 09:31:21;;;;;;;4.68;2.25;;;;;;;;;;4993289;28;20828;-64
2021/09/06 09:33:56;;;;;;;5.68;2.22;;;;;;;;;;4992327;28;20061;-64
2021/09/06 09:36:26;;;;;;;6.40;2.15;;;;;;;;;;4996849;28;20157;-65
2021/09/06 09:39:03;;;;;;;5.18;1.73;;;;;;;;;;4993425;28;20165;-64
2021/09/06 09:41:30;;;;;;;3.88;1.90;;;;;;;;;;4990713;28;20445;-64
2021/09/06 09:44:12;;;;;;;6.65;2.17;;;;;;;;;;4986905;28;20169;-64
2021/09/06 09:46:38;;;;;;;4.70;2.13;;;;;;;;;;4990610;28;20410;-64
2021/09/06 09:49:10;;;;;;;5.07;2.30;;;;;;;;;;4994052;28;20588;-64
2021/09/06 09:51:39;;;;;;;6.95;1.88;;;;;;;;;;4988636;28;20120;-64
2021/09/06 09:54:07;;;;;;;5.60;1.80;;;;;;;;;;4990214;28;20050;-64
2021/09/06 09:56:33;;;;;;;3.60;2.05;;;;;;;;;;4989152;28;20065;-64
2021/09/06 09:59:00;;;;;;;3.25;1.92;;;;;;;;;;4992991;28;20058;-64
2021/09/06 10:01:28;;;;;;;5.53;1.95;;;;;;;;;;4993082;28;20096;-64
2021/09/06 10:03:57;;;;;;;5.68;1.92;;;;;;;;;;4995892;28;20046;-64
2021/09/06 10:06:24;;;;;;;3.08;1.90;;;;;;;;;;4985988;28;20126;-64
2021/09/06 10:08:52;;;;;;;3.92;1.80;;;;;;;;;;4975652;28;20589;-64
2021/09/06 10:11:19;;;;;;;5.38;2.00;;;;;;;;;;4986808;28;20050;-64
2021/09/06 10:13:45;;;;;;;3.53;1.55;;;;;;;;;;4985033;28;20073;-64
2021/09/06 10:16:13;;;;;;;4.33;1.80;;;;;;;;;;4984088;28;20486;-64
2021/09/06 10:18:40;;;;;;;4.47;1.70;;;;;;;;;;4984441;28;20057;-64
2021/09/06 10:21:25;;;;;;;6.03;1.85;;;;;;;;;;4985031;28;20150;-64
2021/09/06 10:23:52;;;;;;;4.70;1.85;;;;;;;;;;4981131;28;20089;-64
2021/09/06 10:26:21;;;;;;;4.90;1.97;;;;;;;;;;4986557;28;20104;-64
2021/09/06 10:28:47;;;;;;;3.03;1.90;;;;;;;;;;4985501;28;20085;-64
2021/09/06 10:31:18;;;;;;;4.22;1.98;;;;;;;;;;4977044;28;20074;-64
2021/09/06 10:33:46;;;;;;;2.95;1.77;;;;;;;;;;4980985;28;20054;-64
2021/09/06 10:36:20;;;;;;;4.80;2.15;;;;;;;;;;4985310;28;20070;-64
2021/09/06 10:39:04;;;;;;;7.20;2.10;;;;;;;;;;4981418;28;20090;-64
2021/09/06 10:41:30;;;;;;;8.13;2.00;;;;;;;;;;4983576;28;20494;-64
2021/09/06 10:43:58;;;;;;;5.35;2.47;;;;;;;;;;4984532;28;20061;-64
2021/09/06 10:46:26;;;;;;;4.32;2.10;;;;;;;;;;4989154;28;20125;-64
2021/09/06 10:48:52;;;;;;;;;;;;;;;;;;4974356;28;20514;-64
2021/09/06 10:51:26;;;;;;;4.93;1.95;;;;;;;;;;4986583;28;19928;-64
2021/09/06 10:53:54;;;;;;;5.57;2.20;;;;;;;;;;4984183;28;20133;-64
2021/09/06 10:56:25;;;;;;;3.58;1.90;;;;;;;;;;4983350;28;20078;-64
2021/09/06 10:58:53;;;;;;;6.82;2.30;;;;;;;;;;4978124;28;20077;-64
2021/09/06 11:01:20;;;;;;;4.78;2.10;;;;;;;;;;4977131;28;20093;-64
2021/09/06 11:03:48;;;;;;;4.05;1.70;;;;;;;;;;4986697;28;20058;-64
2021/09/06 11:06:15;;;;;;;6.50;2.22;;;;;;;;;;4988257;28;20517;-62
2021/09/06 11:08:44;;;;;;;2.22;1.42;;;;;;;;;;4981107;28;20484;-62
2021/09/06 11:11:10;;;;;;;5.25;2.20;;;;;;;;;;4976477;28;20457;-62
2021/09/06 11:13:38;;;;;;;7.13;2.20;;;;;;;;;;4985921;28;20154;-62
2021/09/06 11:16:06;;;;;;;2.92;1.90;;;;;;;;;;4983158;28;20085;-62
2021/09/06 11:18:35;;;;;;;4.03;2.28;;;;;;;;;;4982965;28;20051;-62
2021/09/06 11:21:03;;;;;;;7.22;2.10;;;;;;;;;;4973622;28;20145;-63
2021/09/06 11:23:31;;;;;;;2.90;2.03;;;;;;;;;;4979350;28;20078;-62
2021/09/06 11:25:58;;;;;;;5.20;2.50;;;;;;;;;;4985996;28;20077;-62
2021/09/06 11:28:24;;;;;;;4.87;2.00;;;;;;;;;;4991094;28;20133;-62
2021/09/06 11:30:51;;;;;;;2.63;2.00;;;;;;;;;;4987510;28;20389;-62
2021/09/06 11:33:17;;;;;;;4.93;2.47;;;;;;;;;;4981279;28;20078;-62
2021/09/06 11:35:45;;;;;;;7.20;2.08;;;;;;;;;;4978198;28;20149;-62
2021/09/06 11:38:13;;;;;;;3.88;2.60;;;;;;;;;;4979299;28;20620;-62
2021/09/06 11:40:40;;;;;;;3.00;1.67;;;;;;;;;;4982542;28;20070;-62
2021/09/06 11:43:07;;;;;;;4.95;2.17;;;;;;;;;;4980156;28;20134;-62
2021/09/06 11:45:34;;;;;;;4.03;2.22;;;;;;;;;;4982542;28;20145;-62
2021/09/06 11:48:01;;;;;;;4.32;2.03;;;;;;;;;;4986148;28;20137;-62
2021/09/06 11:50:31;;;;;;;4.65;1.98;;;;;;;;;;4985912;28;20047;-62
2021/09/06 11:53:07;;;;;;;3.63;2.05;;;;;;;;;;4985820;28;20054;-62
2021/09/06 11:55:33;;;;;;;9.82;2.50;;;;;;;;;;4979425;28;20569;-62
2021/09/06 11:58:07;;;;;;;4.50;1.93;;;;;;;;;;4974544;28;20046;-62
2021/09/06 12:00:34;;;;;;;2.50;1.67;;;;;;;;;;4981947;28;20062;-62
2021/09/06 12:03:01;;;;;;;3.17;1.80;;;;;;;;;;4985307;28;20054;-62
2021/09/06 12:05:42;;;;;;;5.13;2.10;;;;;;;;;;4988513;28;20066;-62
2021/09/06 12:08:13;;;;;;;8.82;1.95;;;;;;;;;;4974307;28;20054;-62
2021/09/06 12:10:40;;;;;;;5.45;1.95;;;;;;;;;;4976735;28;20125;-62
2021/09/06 12:13:06;;;;;;;;;;;;;;;;;;4983674;28;20151;-62
2021/09/06 12:15:35;;;;;;;5.90;2.35;;;;;;;;;;4982096;28;20035;-62
2021/09/06 12:18:09;;;;;;;2.47;1.92;;;;;;;;;;4987116;28;20049;-62
2021/09/06 12:20:39;;;;;;;6.60;2.50;;;;;;;;;;4989242;28;20458;-62
2021/09/06 12:23:09;;;;;;;4.07;2.17;;;;;;;;;;4982029;28;20051;-62
2021/09/06 12:25:36;;;;;;;4.90;2.13;;;;;;;;;;4981731;28;20053;-62
2021/09/06 12:28:03;;;;;;;;;;;;;;;;;;4984878;28;20149;-62
2021/09/06 12:30:29;;;;;;;5.40;2.17;;;;;;;;;;4979926;28;20012;-62
2021/09/06 12:32:56;;;;;;;6.28;2.45;;;;;;;;;;4985386;28;20506;-62
2021/09/06 12:35:22;;;;;;;4.20;2.10;;;;;;;;;;4976730;28;20625;-62
2021/09/06 12:37:49;;;;;;;3.03;1.90;;;;;;;;;;4978699;28;20053;-62
2021/09/06 12:40:15;;;;;;;2.47;1.90;;;;;;;;;;4979196;28;20490;-62
2021/09/06 12:42:47;;;;;;;7.00;2.45;;;;;;;;;;4980924;28;20530;-62
2021/09/06 12:45:14;;;;;;;2.58;2.05;;;;;;;;;;4981314;28;20054;-62
2021/09/06 12:47:40;;;;;;;2.23;1.90;;;;;;;;;;4985797;28;20138;-62
2021/09/06 12:50:07;;;;;;;3.37;1.90;;;;;;;;;;4978068;28;20078;-62
2021/09/06 12:52:35;;;;;;;3.58;2.00;;;;;;;;;;4980181;28;20530;-62
2021/09/06 12:55:02;;;;;;;6.03;2.55;;;;;;;;;;4979911;28;20508;-62
2021/09/06 12:57:29;;;;;;;4.63;1.92;;;;;;;;;;4980780;28;20089;-62
2021/09/06 12:59:55;;;;;;;6.43;2.40;;;;;;;;;;4985141;28;20082;-62
2021/09/06 13:02:22;;;;;;;5.32;2.40;;;;;;;;;;4980450;28;20606;-62
2021/09/06 13:04:49;;;;;;;5.70;2.47;;;;;;;;;;4980426;28;20061;-62
2021/09/06 13:07:16;;;;;;;2.93;2.23;;;;;;;;;;4984523;28;20554;-62
2021/09/06 13:09:42;;;;;;;6.18;2.40;;;;;;;;;;4979030;28;20801;-62
2021/09/06 13:12:09;;;;;;;5.40;2.70;;;;;;;;;;4984238;28;20105;-62
2021/09/06 13:14:36;;;;;;;2.53;1.95;;;;;;;;;;4988097;28;20470;-62
2021/09/06 13:17:02;;;;;;;4.50;2.15;;;;;;;;;;4980135;28;20125;-62
2021/09/06 13:19:29;;;;;;;4.83;2.87;;;;;;;;;;4981702;28;20133;-62
2021/09/06 13:21:55;;;;;;;4.22;2.35;;;;;;;;;;4977368;28;20805;-62
2021/09/06 13:24:22;;;;;;;3.75;2.53;;;;;;;;;;4985342;28;20835;-62
2021/09/06 13:26:48;;;;;;;9.20;2.27;;;;;;;;;;4982754;28;20093;-62
2021/09/06 13:29:15;;;;;;;4.53;2.40;;;;;;;;;;4987033;28;20137;-62
2021/09/06 13:31:42;;;;;;;3.72;2.30;;;;;;;;;;4981169;28;20038;-62
2021/09/06 13:34:08;;;;;;;4.95;2.30;;;;;;;;;;4983752;28;20722;-62
2021/09/06 13:36:36;;;;;;;3.85;2.25;;;;;;;;;;4983267;28;20511;-62
2021/09/06 13:39:03;;;;;;;4.57;2.17;;;;;;;;;;4976658;28;20089;-63
2021/09/06 13:41:29;;;;;;;;;;;;;;;;;;4981841;28;20234;-62
2021/09/06 13:43:56;;;;;;;2.95;2.03;;;;;;;;;;4986417;28;20405;-62
2021/09/06 13:46:22;;;;;;;3.33;2.38;;;;;;;;;;4989657;28;20101;-62
2021/09/06 13:48:49;;;;;;;4.73;2.43;;;;;;;;;;4987362;28;20542;-62
2021/09/06 13:51:15;;;;;;;8.85;2.50;;;;;;;;;;4984488;28;20139;-62
2021/09/06 13:53:42;;;;;;;3.33;2.08;;;;;;;;;;4986173;28;20522;-62
2021/09/06 13:56:09;;;;;;;5.97;2.35;;;;;;;;;;4985687;28;20138;-62
2021/09/06 13:58:38;;;;;;;4.93;2.58;;;;;;;;;;4980872;28;20082;-62
2021/09/06 14:01:05;;;;;;;4.60;2.40;;;;;;;;;;4982135;28;20085;-62
2021/09/06 14:03:32;;;;;;;5.85;2.58;;;;;;;;;;4986107;28;20097;-62
2021/09/06 14:05:59;;;;;;;3.10;1.98;;;;;;;;;;4985388;28;20133;-62
2021/09/06 14:08:25;;;;;;;4.77;2.53;;;;;;;;;;4983566;28;20043;-62
2021/09/06 14:10:54;;;;;;;4.30;2.70;;;;;;;;;;4985053;28;20042;-62
2021/09/06 14:13:21;;;;;;;5.78;2.28;;;;;;;;;;4987777;28;20101;-62
2021/09/06 14:15:47;;;;;;;3.13;2.00;;;;;;;;;;4989471;28;20129;-62
2021/09/06 14:18:14;;;;;;;4.03;2.45;;;;;;;;;;4983506;28;20506;-62
2021/09/06 14:20:41;;;;;;;4.68;2.42;;;;;;;;;;4985344;28;20646;-62
2021/09/06 14:23:08;;;;;;;3.67;2.25;;;;;;;;;;4989273;28;20089;-62
2021/09/06 14:25:35;;;;;;;4.93;2.58;;;;;;;;;;4986520;28;20502;-62
2021/09/06 14:28:02;;;;;;;4.60;2.80;;;;;;;;;;4988678;28;20145;-62
2021/09/06 14:30:29;;;;;;;6.28;2.63;;;;;;;;;;4981122;28;20137;-62
2021/09/06 14:32:55;;;;;;;4.82;2.40;;;;;;;;;;4983983;28;20598;-62
2021/09/06 14:35:22;;;;;;;4.65;2.70;;;;;;;;;;4985323;28;20657;-62
2021/09/06 14:37:48;;;;;;;5.73;2.37;;;;;;;;;;4982516;28;20463;-62
2021/09/06 14:40:15;;;;;;;5.15;2.38;;;;;;;;;;4986424;28;20121;-62
2021/09/06 14:42:41;;;;;;;6.95;2.85;;;;;;;;;;4983511;28;20088;-62
2021/09/06 14:45:08;;;;;;;3.65;2.20;;;;;;;;;;4983585;28;20142;-62